Crew | Aerofun Virtual



 METAR AND TAF INFORMATION
METAR FOR EGPO
ADDS - METARS form results

(1548 UTC 24 May 2019)
Data provider http://aviationweather.gov/metar/data/
 
METAR text: EGPO 241520Z 31012KT 290V350 9999 FEW016 BKN022 10/06 Q1018
Conditions at: EGPO (STORNOWAY , GB) observed 1520 UTC 24 May 2019
Temperature: 10.0°C (50°F)
Dewpoint: 6.0°C (43°F) [RH = 76%]
Pressure (altimeter): 30.06 inches Hg (1018.0 mb)
Winds: from the NW (310 degrees) at 14 MPH (12 knots; 6.2 m/s)
Visibility: 6 or more miles (10+ km)
Ceiling: 2200 feet AGL
Clouds: few clouds at 1600 feet AGL
broken clouds at 2200 feet AGL
Weather: no significant weather observed at this time

METAR text: EGPO 241450Z 30012KT 9999 FEW017 BKN022 11/06 Q1018
Conditions at: EGPO (STORNOWAY , GB) observed 1450 UTC 24 May 2019
Temperature: 11.0°C (52°F)
Dewpoint: 6.0°C (43°F) [RH = 71%]
Pressure (altimeter): 30.06 inches Hg (1018.0 mb)
Winds: from the WNW (300 degrees) at 14 MPH (12 knots; 6.2 m/s)
Visibility: 6 or more miles (10+ km)
Ceiling: 2200 feet AGL
Clouds: few clouds at 1700 feet AGL
broken clouds at 2200 feet AGL
Weather: no significant weather observed at this time

Forecast for: EGPO (STORNOWAY , GB)
Text: TAF EGPO 241355Z 2415/2424 30012KT 9999 BKN025
Forecast period: 1500 UTC 24 May 2019 to 0000 UTC 25 May 2019
Forecast type: FROM: standard forecast or significant change
Winds: from the WNW (300 degrees) at 14 MPH (12 knots; 6.2 m/s)
Visibility: 6 or more miles 10+ km)
Ceiling: 2500 feet AGL
Clouds: broken clouds at 2500 feet AGL
Weather: no significant weather forecast for this period

 AIRPORT MAP

 RUNWAY INFORMATION
Runway 07 Runway length 3281 ft Runway width 75 ft
Runway elevation 26 ft Runway displaced threshold 0 ft Runway heading 60
Runway 25 Runway length 3281 ft Runway width 75 ft
Runway elevation 21 ft Runway displaced threshold 0 ft Runway heading 240
Runway 18 Runway length 7218 ft Runway width 151 ft
Runway elevation 16 ft Runway displaced threshold 394 ft Runway heading 174
Runway 36 Runway length 7218 ft Runway width 151 ft
Runway elevation 15 ft Runway displaced threshold 0 ft Runway heading 354

 AIRPORT FREQUENCIES
Type AFIS Name AFIS Frequency 123.5 MHZ
Type APP Name APP Frequency 123.5 MHZ
Type ATIS Name ATIS Frequency 115.1 MHZ
Type TWR Name TWR Frequency 123.5 MHZ

 AIRPORT NEAR NAVIGATION AIDS
Type NDB-DME Name Stornoway Frequency 431 KHZ
Type VOR-DME Name Stornoway Frequency 115100 KHZ